首页
METAR-TAF:

METAR-TAF

机场 :

Stewart, 不列颠哥伦比亚, 加拿大

纬度: 55-56N, 经度: 129-59W, 海拔: 7米

当前天气观测

该预报发布于15分钟前的20:00 UTC
风速6节,风向南转西南,在南转南东西南之间变化
温度 7°C
湿度 93%
气压 1001 hPa
能見度: 4.8公里
少量云层高于700英尺
阴天层高于6000英尺
小雨, 轻雾

METAR: CZST 172000Z 21006KT 160V230 3SM -RA BR FEW007 OVC060 07/06 A2957 RMK SC2SC6 SLP016

时间: 12:15 (20:15 UTC)


TAF: 丢失

超过4000个机场的气象观测和天气预报(METAR&TAF报告)。

可查询的气象台以黄色和红色小点在地图上表示。

将鼠标移到小点上方,可查看气象台名称。

然后点击查看天气观测和预报。

如需切换地图:点击带黑十字的绿色按钮放大地图;点击带横线的绿色按钮缩小地图;或者点击绿色箭头查看邻近地区的地图。


METAR-TAF: